createdAt,value
2019-06-27T00:00:13.978Z,98.80
2019-06-27T00:02:42.923Z,98.90
2019-06-27T00:05:12.021Z,98.90
2019-06-27T00:07:41.075Z,98.90
2019-06-27T00:10:10.941Z,99.10
2019-06-27T00:12:39.810Z,99.00
2019-06-27T00:15:09.043Z,99.20
2019-06-27T00:17:37.886Z,99.10
2019-06-27T00:20:06.940Z,99.00
2019-06-27T00:22:35.951Z,99.10
2019-06-27T00:25:05.109Z,99.10
2019-06-27T00:27:34.057Z,99.00
2019-06-27T00:30:03.015Z,99.00
2019-06-27T00:32:31.953Z,98.90
2019-06-27T00:35:00.890Z,99.00
2019-06-27T00:37:29.923Z,98.90
2019-06-27T00:39:58.841Z,98.90
2019-06-27T00:42:27.872Z,98.90
2019-06-27T00:44:56.804Z,99.10
2019-06-27T00:47:25.743Z,99.00
2019-06-27T00:49:54.621Z,98.90
2019-06-27T00:52:26.361Z,98.60
2019-06-27T00:54:55.361Z,98.60
2019-06-27T00:57:24.453Z,98.70
2019-06-27T00:59:53.448Z,98.70
2019-06-27T01:02:22.373Z,98.70
2019-06-27T01:04:51.325Z,98.70
2019-06-27T01:07:20.274Z,98.70
2019-06-27T01:09:49.193Z,98.50
2019-06-27T01:12:18.114Z,98.70
2019-06-27T01:14:47.068Z,98.80
2019-06-27T01:17:15.908Z,98.70
2019-06-27T01:19:44.829Z,98.70
2019-06-27T01:22:13.766Z,98.50
2019-06-27T01:24:42.680Z,98.40
2019-06-27T01:27:11.565Z,98.50
2019-06-27T01:29:40.412Z,98.50
2019-06-27T01:32:09.404Z,98.50
2019-06-27T01:34:38.281Z,98.60
2019-06-27T01:37:07.145Z,98.40
2019-06-27T01:39:36.064Z,98.30
2019-06-27T01:42:05.099Z,98.30
2019-06-27T01:45:02.313Z,98.40
2019-06-27T01:47:31.431Z,98.50
2019-06-27T01:50:00.384Z,98.40
2019-06-27T01:52:29.385Z,98.30
2019-06-27T01:54:58.277Z,98.30
2019-06-27T01:57:27.212Z,98.30
2019-06-27T01:59:56.141Z,98.40
2019-06-27T02:02:25.164Z,98.40
2019-06-27T02:04:54.013Z,98.40
2019-06-27T02:07:23.018Z,98.30
2019-06-27T02:09:52.125Z,98.20
2019-06-27T02:12:21.057Z,98.20
2019-06-27T02:14:49.973Z,98.20
2019-06-27T02:17:18.972Z,98.20
2019-06-27T02:19:47.960Z,98.20
2019-06-27T02:22:16.885Z,98.30
2019-06-27T02:24:45.812Z,98.30
2019-06-27T02:27:14.814Z,98.40
2019-06-27T02:29:43.737Z,98.30
2019-06-27T02:32:12.600Z,98.20
2019-06-27T02:34:41.626Z,98.30
2019-06-27T02:37:10.553Z,98.20
2019-06-27T02:39:39.512Z,98.20
2019-06-27T02:42:08.425Z,98.40
2019-06-27T02:44:37.353Z,98.30
2019-06-27T02:47:06.282Z,98.50
2019-06-27T02:49:35.262Z,98.50
2019-06-27T02:52:04.191Z,98.50
2019-06-27T02:54:33.111Z,98.40
2019-06-27T02:57:01.972Z,98.20
2019-06-27T02:59:30.834Z,98.30
2019-06-27T03:01:59.754Z,98.20
2019-06-27T03:04:28.707Z,98.20
2019-06-27T03:06:57.907Z,98.20
2019-06-27T03:09:26.970Z,98.20
2019-06-27T03:11:59.977Z,98.10
2019-06-27T03:14:26.553Z,98.20
2019-06-27T03:16:55.402Z,98.30
2019-06-27T03:19:24.410Z,98.30
2019-06-27T03:21:53.410Z,98.40
2019-06-27T03:24:22.280Z,98.30
2019-06-27T03:26:51.276Z,98.20
2019-06-27T03:29:20.786Z,98.30
2019-06-27T03:31:49.932Z,98.20
2019-06-27T03:34:18.970Z,98.40
2019-06-27T03:36:47.855Z,98.30
2019-06-27T03:39:16.862Z,98.30
2019-06-27T03:41:45.859Z,98.50
2019-06-27T03:44:14.731Z,98.50
2019-06-27T03:46:43.607Z,98.40
2019-06-27T03:49:12.625Z,98.50
2019-06-27T03:51:41.563Z,98.50
2019-06-27T03:54:10.501Z,98.40
2019-06-27T03:56:39.423Z,98.60
2019-06-27T03:59:12.930Z,98.60
2019-06-27T04:01:39.170Z,98.50
2019-06-27T04:04:08.198Z,98.60
2019-06-27T04:06:37.062Z,98.40
2019-06-27T04:09:06.397Z,98.20
2019-06-27T04:11:35.326Z,98.20
2019-06-27T04:14:04.455Z,98.20
2019-06-27T04:16:33.387Z,98.30
2019-06-27T04:19:02.397Z,98.10
2019-06-27T04:21:31.407Z,98.20
2019-06-27T04:24:00.425Z,98.30
2019-06-27T04:26:29.423Z,98.20
2019-06-27T04:28:58.517Z,98.30
2019-06-27T04:31:27.517Z,98.40
2019-06-27T04:33:56.378Z,98.40
2019-06-27T04:36:25.325Z,98.30
2019-06-27T04:38:54.373Z,98.40
2019-06-27T04:41:23.229Z,98.40
2019-06-27T04:43:52.437Z,98.30
2019-06-27T04:46:21.378Z,98.20
2019-06-27T04:48:50.252Z,98.30
2019-06-27T04:51:19.178Z,98.20
2019-06-27T04:53:48.184Z,98.20
2019-06-27T04:56:17.105Z,98.30
2019-06-27T04:58:45.974Z,98.30
2019-06-27T05:01:14.887Z,98.30
2019-06-27T05:03:43.765Z,98.30
2019-06-27T05:06:12.694Z,98.10
2019-06-27T05:08:41.635Z,98.10
2019-06-27T05:11:10.569Z,98.00
2019-06-27T05:13:39.574Z,98.00
2019-06-27T05:16:08.590Z,97.90
2019-06-27T05:18:37.594Z,97.90
2019-06-27T05:21:06.459Z,98.00
2019-06-27T05:23:35.461Z,97.90
2019-06-27T05:26:04.426Z,97.90
2019-06-27T05:28:33.365Z,97.70
2019-06-27T05:31:02.292Z,97.50
2019-06-27T05:33:31.262Z,97.60
2019-06-27T05:36:02.295Z,97.50
2019-06-27T05:38:30.691Z,97.50
2019-06-27T05:40:59.717Z,97.60
2019-06-27T05:43:28.646Z,97.60
2019-06-27T05:45:57.525Z,97.70
2019-06-27T05:48:26.400Z,97.60
2019-06-27T05:50:55.374Z,97.50
2019-06-27T05:53:24.257Z,97.40
2019-06-27T05:55:53.288Z,97.50
2019-06-27T05:58:22.423Z,97.50
2019-06-27T06:00:51.779Z,97.50
2019-06-27T06:03:20.700Z,97.30
2019-06-27T06:05:49.571Z,97.10
2019-06-27T06:08:18.509Z,97.10
2019-06-27T06:10:47.513Z,97.10
2019-06-27T06:13:16.526Z,96.80
2019-06-27T06:15:45.462Z,96.80
2019-06-27T06:18:14.383Z,97.10
2019-06-27T06:20:43.257Z,96.80
2019-06-27T06:23:12.245Z,96.60
2019-06-27T06:25:41.214Z,96.70
2019-06-27T06:28:10.074Z,96.50
2019-06-27T06:30:44.537Z,96.50
2019-06-27T06:33:09.709Z,96.40
2019-06-27T06:35:38.645Z,96.50
2019-06-27T06:38:07.641Z,96.50
2019-06-27T06:40:36.625Z,96.40
2019-06-27T06:43:05.661Z,96.70
2019-06-27T06:45:34.697Z,96.50
2019-06-27T06:48:03.720Z,96.50
2019-06-27T06:50:32.655Z,96.10
2019-06-27T06:53:01.523Z,96.20
2019-06-27T06:55:30.586Z,96.40
2019-06-27T06:57:59.514Z,96.30
2019-06-27T07:00:28.518Z,96.20
2019-06-27T07:02:57.463Z,96.00
2019-06-27T07:05:26.566Z,95.90
2019-06-27T07:07:55.517Z,96.00
2019-06-27T07:10:26.378Z,96.10
2019-06-27T07:12:55.445Z,95.80
2019-06-27T07:15:24.459Z,96.10
2019-06-27T07:17:53.463Z,95.60
2019-06-27T07:20:22.477Z,95.80
2019-06-27T07:22:51.419Z,95.60
2019-06-27T07:25:20.873Z,95.80
2019-06-27T07:27:50.246Z,95.30
2019-06-27T13:12:56.257Z,79.20
2019-06-27T14:25:57.374Z,75.40
2019-06-27T14:57:22.560Z,77.70
2019-06-27T15:40:35.441Z,83.70
2019-06-27T15:50:00.029Z,83.70
2019-06-27T15:52:29.033Z,84.20
2019-06-27T15:54:57.879Z,84.60
2019-06-27T15:57:26.838Z,84.50
2019-06-27T15:59:55.712Z,85.10
2019-06-27T16:02:27.661Z,85.40
2019-06-27T16:04:56.588Z,85.20
2019-06-27T16:07:25.519Z,85.30
2019-06-27T16:09:54.501Z,85.30
2019-06-27T16:12:23.489Z,86.50
2019-06-27T16:14:52.473Z,86.60
2019-06-27T16:17:21.432Z,86.00
2019-06-27T16:19:50.365Z,86.50
2019-06-27T16:22:19.286Z,86.40
2019-06-27T16:24:48.326Z,87.00
2019-06-27T16:27:17.267Z,88.50
2019-06-27T16:29:46.123Z,87.90
2019-06-27T16:32:15.159Z,87.70
2019-06-27T16:34:44.009Z,88.70
2019-06-27T16:37:12.974Z,88.30
2019-06-27T16:39:42.017Z,88.30
2019-06-27T16:42:11.025Z,88.30
2019-06-27T16:44:39.986Z,88.50
2019-06-27T16:47:09.016Z,88.10
2019-06-27T16:49:37.934Z,88.40
2019-06-27T16:52:06.925Z,88.10
2019-06-27T16:54:35.880Z,88.70
2019-06-27T17:04:01.352Z,89.30
2019-06-27T17:06:41.241Z,89.50
2019-06-27T17:09:01.056Z,90.00
2019-06-27T17:11:30.047Z,90.10
2019-06-27T17:13:59.025Z,90.00
2019-06-27T17:16:27.979Z,90.10
2019-06-27T17:18:56.865Z,90.40
2019-06-27T17:21:25.865Z,90.50
2019-06-27T17:23:54.721Z,90.60
2019-06-27T17:26:23.717Z,90.60
2019-06-27T17:28:52.593Z,90.60
2019-06-27T17:31:21.605Z,90.60
2019-06-27T17:33:50.469Z,90.70
2019-06-27T17:36:19.495Z,90.90
2019-06-27T17:38:48.429Z,90.90
2019-06-27T17:41:17.348Z,91.00
2019-06-27T17:43:46.213Z,90.80
2019-06-27T17:46:15.139Z,90.70
2019-06-27T17:48:44.087Z,90.90
2019-06-27T17:51:13.013Z,90.90
2019-06-27T17:53:42.828Z,90.80
2019-06-27T17:56:12.037Z,90.90
2019-06-27T17:58:41.061Z,90.80
2019-06-27T18:01:09.986Z,91.30
2019-06-27T18:03:38.912Z,91.50
2019-06-27T18:06:07.863Z,91.80
2019-06-27T18:08:36.809Z,91.70
2019-06-27T18:11:05.817Z,91.70
2019-06-27T18:13:34.748Z,91.80
2019-06-27T18:16:03.697Z,92.00
2019-06-27T18:18:32.640Z,91.90
2019-06-27T18:21:01.505Z,92.00
2019-06-27T18:23:30.369Z,92.00
2019-06-27T18:25:59.245Z,92.40
2019-06-27T18:28:28.103Z,92.40
2019-06-27T18:30:56.952Z,92.50
2019-06-27T18:33:25.899Z,92.60
2019-06-27T18:35:54.809Z,92.80
2019-06-27T18:38:23.826Z,92.70
2019-06-27T18:40:52.823Z,92.70
2019-06-27T18:43:21.741Z,92.70
2019-06-27T18:45:50.693Z,92.80
2019-06-27T18:48:19.621Z,92.70
2019-06-27T18:50:48.444Z,92.60
2019-06-27T18:53:17.306Z,92.70
2019-06-27T18:55:46.435Z,92.90
2019-06-27T18:58:15.381Z,93.00
2019-06-27T19:00:44.404Z,92.90
2019-06-27T19:03:13.313Z,93.00
2019-06-27T19:05:42.334Z,93.00
2019-06-27T19:08:11.355Z,92.90
2019-06-27T19:10:40.237Z,93.20
2019-06-27T19:13:09.489Z,93.20
2019-06-27T19:15:38.481Z,92.90
2019-06-27T19:18:26.563Z,93.30
2019-06-27T19:20:55.894Z,93.10
2019-06-27T19:23:50.220Z,93.30
2019-06-27T19:26:19.248Z,93.60
2019-06-27T19:28:48.100Z,93.50
2019-06-27T19:31:17.106Z,93.30
2019-06-27T19:33:46.037Z,93.60
2019-06-27T19:36:15.081Z,93.70
2019-06-27T19:38:44.005Z,93.40
2019-06-27T19:41:12.973Z,93.70
2019-06-27T19:43:42.175Z,93.40
2019-06-27T19:46:11.102Z,94.10
2019-06-27T19:48:40.125Z,93.50
2019-06-27T19:51:09.152Z,93.60
2019-06-27T19:53:38.022Z,93.50
2019-06-27T19:56:07.022Z,93.60
2019-06-27T19:58:35.893Z,93.50
2019-06-27T20:01:04.974Z,93.30
2019-06-27T20:03:33.905Z,93.30
2019-06-27T20:06:02.857Z,93.50
2019-06-27T20:08:34.201Z,93.30
2019-06-27T20:11:03.286Z,93.60
2019-06-27T20:13:32.169Z,93.40
2019-06-27T20:16:01.209Z,93.70
2019-06-27T20:18:30.060Z,93.70
2019-06-27T20:20:58.979Z,93.60
2019-06-27T20:23:27.873Z,93.80
2019-06-27T20:25:56.884Z,94.00
2019-06-27T20:28:25.825Z,93.80
2019-06-27T20:30:54.747Z,93.80
2019-06-27T20:33:23.668Z,93.60
2019-06-27T20:35:52.713Z,93.70
2019-06-27T20:38:34.422Z,93.80
2019-06-27T20:40:52.317Z,94.00
2019-06-27T20:43:21.278Z,93.90
2019-06-27T20:45:51.661Z,93.90
2019-06-27T20:48:20.690Z,94.00
2019-06-27T20:50:49.682Z,93.90
2019-06-27T20:53:18.718Z,94.40
2019-06-27T20:55:47.747Z,94.00
2019-06-27T20:58:16.645Z,94.40
2019-06-27T21:00:45.596Z,94.40
2019-06-27T21:03:14.512Z,94.20
2019-06-27T21:05:43.453Z,94.70
2019-06-27T21:08:12.413Z,94.50
2019-06-27T21:10:41.420Z,94.60
2019-06-27T21:13:10.353Z,95.10
2019-06-27T21:15:39.291Z,94.90
2019-06-27T21:18:08.231Z,95.10
2019-06-27T21:20:37.184Z,95.10
2019-06-27T21:23:06.130Z,95.10
2019-06-27T21:25:35.162Z,95.30
2019-06-27T21:28:04.100Z,94.80
2019-06-27T21:30:33.106Z,95.30
2019-06-27T21:33:04.153Z,95.10
2019-06-27T21:35:33.193Z,95.30
2019-06-27T21:38:02.044Z,95.40
2019-06-27T21:40:31.285Z,95.40
2019-06-27T21:43:00.192Z,95.30
2019-06-27T21:45:29.213Z,95.50
2019-06-27T21:47:58.063Z,95.50
2019-06-27T21:50:27.078Z,95.70
2019-06-27T21:52:56.082Z,95.40
2019-06-27T21:55:25.096Z,95.60
2019-06-27T21:57:53.953Z,95.40
2019-06-27T22:00:23.253Z,95.40
2019-06-27T22:02:52.280Z,95.60
2019-06-27T22:05:21.377Z,95.40
2019-06-27T22:07:53.431Z,95.40
2019-06-27T22:10:21.198Z,95.50
2019-06-27T22:12:50.190Z,95.20
2019-06-27T22:15:19.214Z,95.60
2019-06-27T22:17:48.233Z,95.80
2019-06-27T22:20:17.428Z,95.70
2019-06-27T22:22:46.422Z,95.60
2019-06-27T22:25:15.445Z,95.70
2019-06-27T22:27:44.364Z,96.00
2019-06-27T22:30:14.993Z,95.60
2019-06-27T22:32:44.017Z,95.60
2019-06-27T22:35:13.216Z,95.70
2019-06-27T22:37:59.945Z,95.80
2019-06-27T22:40:46.614Z,95.90
2019-06-27T22:43:33.194Z,95.80
2019-06-27T22:46:19.852Z,95.70
2019-06-27T22:48:48.006Z,96.20
2019-06-27T22:51:39.274Z,95.90
2019-06-27T22:54:09.217Z,96.20
2019-06-27T22:56:38.117Z,96.10
2019-06-27T22:59:06.974Z,96.20
2019-06-27T23:01:35.982Z,96.20
2019-06-27T23:04:04.913Z,96.10
2019-06-27T23:06:33.826Z,96.30
2019-06-27T23:09:02.931Z,96.40
2019-06-27T23:11:31.804Z,96.10
2019-06-27T23:14:00.724Z,96.00
2019-06-27T23:16:29.666Z,96.30
2019-06-27T23:18:58.606Z,96.40
2019-06-27T23:21:27.517Z,96.30
2019-06-27T23:23:56.461Z,96.50
2019-06-27T23:26:25.300Z,96.30
2019-06-27T23:28:54.255Z,95.90
2019-06-27T23:31:23.126Z,96.70
2019-06-27T23:33:52.112Z,96.80
2019-06-27T23:36:21.045Z,96.50
2019-06-27T23:38:49.912Z,96.50
2019-06-27T23:41:18.753Z,96.40
2019-06-27T23:43:47.682Z,96.40
2019-06-27T23:46:34.529Z,96.50
2019-06-27T23:49:03.437Z,96.50
2019-06-27T23:51:32.370Z,96.90
2019-06-27T23:54:01.326Z,96.70
2019-06-27T23:56:30.326Z,96.90
2019-06-27T23:58:59.255Z,97.00
